sensor_id;sensor_type;location;lat;lon;timestamp;pressure;altitude;pressure_sealevel;temperature;humidity
12763;BME280;6445;52.490;13.378;2023-04-08T00:01:28;-12695.97;;;-146.10;100.00
12763;BME280;6445;52.490;13.378;2023-04-08T00:03:53;-12695.97;;;-146.10;100.00
12763;BME280;6445;52.490;13.378;2023-04-08T00:06:19;-12695.97;;;-146.10;100.00
12763;BME280;6445;52.490;13.378;2023-04-08T00:08:44;-12695.97;;;-146.10;100.00
12763;BME280;6445;52.490;13.378;2023-04-08T00:11:09;-12695.97;;;-146.10;100.00
12763;BME280;6445;52.490;13.378;2023-04-08T00:13:35;-12695.97;;;-146.10;100.00
12763;BME280;6445;52.490;13.378;2023-04-08T00:16:00;-12695.97;;;-146.10;100.00
12763;BME280;6445;52.490;13.378;2023-04-08T00:18:25;-12695.97;;;-146.10;100.00
12763;BME280;6445;52.490;13.378;2023-04-08T00:20:51;-12695.97;;;-146.10;100.00
12763;BME280;6445;52.490;13.378;2023-04-08T00:23:16;-12695.97;;;-146.10;100.00
12763;BME280;6445;52.490;13.378;2023-04-08T00:25:42;-12695.97;;;-146.10;100.00
12763;BME280;6445;52.490;13.378;2023-04-08T00:28:07;-12695.97;;;-146.10;100.00
12763;BME280;6445;52.490;13.378;2023-04-08T00:30:33;-12695.97;;;-146.10;100.00
12763;BME280;6445;52.490;13.378;2023-04-08T00:32:58;-12695.97;;;-146.10;100.00
12763;BME280;6445;52.490;13.378;2023-04-08T00:35:23;-12695.97;;;-146.10;100.00
12763;BME280;6445;52.490;13.378;2023-04-08T00:37:49;-12695.97;;;-146.10;100.00
12763;BME280;6445;52.490;13.378;2023-04-08T00:40:14;-12695.97;;;-146.10;100.00
12763;BME280;6445;52.490;13.378;2023-04-08T00:42:39;-12695.97;;;-146.10;100.00
12763;BME280;6445;52.490;13.378;2023-04-08T00:45:05;-12695.97;;;-146.10;100.00
12763;BME280;6445;52.490;13.378;2023-04-08T00:47:30;-12695.97;;;-146.10;100.00
12763;BME280;6445;52.490;13.378;2023-04-08T00:49:56;-12695.97;;;-146.10;100.00
12763;BME280;6445;52.490;13.378;2023-04-08T00:52:21;-12695.97;;;-146.10;100.00
12763;BME280;6445;52.490;13.378;2023-04-08T00:54:47;-12695.97;;;-146.10;100.00
12763;BME280;6445;52.490;13.378;2023-04-08T00:57:12;-12695.97;;;-146.10;100.00
12763;BME280;6445;52.490;13.378;2023-04-08T00:59:37;-12695.97;;;-146.10;100.00
12763;BME280;6445;52.490;13.378;2023-04-08T01:02:32;-12695.97;;;-146.10;100.00
12763;BME280;6445;52.490;13.378;2023-04-08T01:05:11;-12695.97;;;-146.10;100.00
12763;BME280;6445;52.490;13.378;2023-04-08T01:07:42;-12695.97;;;-146.10;100.00
12763;BME280;6445;52.490;13.378;2023-04-08T01:10:14;-12695.97;;;-146.10;100.00
12763;BME280;6445;52.490;13.378;2023-04-08T01:12:43;-12695.97;;;-146.10;100.00
12763;BME280;6445;52.490;13.378;2023-04-08T01:15:12;-12695.97;;;-146.10;100.00
12763;BME280;6445;52.490;13.378;2023-04-08T01:17:39;-12695.97;;;-146.10;100.00
12763;BME280;6445;52.490;13.378;2023-04-08T01:20:06;-12695.97;;;-146.10;100.00
12763;BME280;6445;52.490;13.378;2023-04-08T01:25:23;-12695.97;;;-146.10;100.00
12763;BME280;6445;52.490;13.378;2023-04-08T01:27:51;-12695.97;;;-146.10;100.00
12763;BME280;6445;52.490;13.378;2023-04-08T01:30:20;-12695.97;;;-146.10;100.00
12763;BME280;6445;52.490;13.378;2023-04-08T01:32:48;-12695.97;;;-146.10;100.00
12763;BME280;6445;52.490;13.378;2023-04-08T01:35:16;-12695.97;;;-146.10;100.00
12763;BME280;6445;52.490;13.378;2023-04-08T01:37:44;-12695.97;;;-146.10;100.00
12763;BME280;6445;52.490;13.378;2023-04-08T01:40:11;-12695.97;;;-146.10;100.00
12763;BME280;6445;52.490;13.378;2023-04-08T01:42:37;-12695.97;;;-146.10;100.00
12763;BME280;6445;52.490;13.378;2023-04-08T01:45:03;-12695.97;;;-146.10;100.00
12763;BME280;6445;52.490;13.378;2023-04-08T01:47:29;-12695.97;;;-146.10;100.00
12763;BME280;6445;52.490;13.378;2023-04-08T01:49:55;-12695.97;;;-146.10;100.00
12763;BME280;6445;52.490;13.378;2023-04-08T01:52:22;-12695.97;;;-146.10;100.00
12763;BME280;6445;52.490;13.378;2023-04-08T01:54:47;-12695.97;;;-146.10;100.00
12763;BME280;6445;52.490;13.378;2023-04-08T01:57:16;-12695.97;;;-146.10;100.00
12763;BME280;6445;52.490;13.378;2023-04-08T01:59:47;-12695.97;;;-146.10;100.00
12763;BME280;6445;52.490;13.378;2023-04-08T02:02:16;-12695.97;;;-146.10;100.00
12763;BME280;6445;52.490;13.378;2023-04-08T02:04:45;-12695.97;;;-146.10;100.00
12763;BME280;6445;52.490;13.378;2023-04-08T02:07:11;-12695.97;;;-146.10;100.00
12763;BME280;6445;52.490;13.378;2023-04-08T02:09:36;-12695.97;;;-146.10;100.00
12763;BME280;6445;52.490;13.378;2023-04-08T02:12:01;-12695.97;;;-146.10;100.00
12763;BME280;6445;52.490;13.378;2023-04-08T02:14:27;-12695.97;;;-146.10;100.00
12763;BME280;6445;52.490;13.378;2023-04-08T02:16:55;-12695.97;;;-146.10;100.00
12763;BME280;6445;52.490;13.378;2023-04-08T02:19:34;-12695.97;;;-146.10;100.00
12763;BME280;6445;52.490;13.378;2023-04-08T02:22:56;-12695.97;;;-146.10;100.00
12763;BME280;6445;52.490;13.378;2023-04-08T02:25:03;-12695.97;;;-146.10;100.00
12763;BME280;6445;52.490;13.378;2023-04-08T02:27:32;-12695.97;;;-146.10;100.00
12763;BME280;6445;52.490;13.378;2023-04-08T02:29:58;-12695.97;;;-146.10;100.00
12763;BME280;6445;52.490;13.378;2023-04-08T02:32:25;-12695.97;;;-146.10;100.00
12763;BME280;6445;52.490;13.378;2023-04-08T02:34:51;-12695.97;;;-146.10;100.00
12763;BME280;6445;52.490;13.378;2023-04-08T02:37:16;-12695.97;;;-146.10;100.00
12763;BME280;6445;52.490;13.378;2023-04-08T02:39:41;-12695.97;;;-146.10;100.00
12763;BME280;6445;52.490;13.378;2023-04-08T02:42:07;-12695.97;;;-146.10;100.00
12763;BME280;6445;52.490;13.378;2023-04-08T02:44:32;-12695.97;;;-146.10;100.00
12763;BME280;6445;52.490;13.378;2023-04-08T02:46:57;-12695.97;;;-146.10;100.00
12763;BME280;6445;52.490;13.378;2023-04-08T02:49:23;-12695.97;;;-146.10;100.00
12763;BME280;6445;52.490;13.378;2023-04-08T02:51:48;-12695.97;;;-146.10;100.00
12763;BME280;6445;52.490;13.378;2023-04-08T02:54:13;-12695.97;;;-146.10;100.00
12763;BME280;6445;52.490;13.378;2023-04-08T02:56:38;-12695.97;;;-146.10;100.00
12763;BME280;6445;52.490;13.378;2023-04-08T02:59:04;-12695.97;;;-146.10;100.00
12763;BME280;6445;52.490;13.378;2023-04-08T03:01:29;-12695.97;;;-146.10;100.00
12763;BME280;6445;52.490;13.378;2023-04-08T03:03:55;-12695.97;;;-146.10;100.00
12763;BME280;6445;52.490;13.378;2023-04-08T03:06:20;-12695.97;;;-146.10;100.00
12763;BME280;6445;52.490;13.378;2023-04-08T03:08:45;-12695.97;;;-146.10;100.00
12763;BME280;6445;52.490;13.378;2023-04-08T03:11:10;-12695.97;;;-146.10;100.00
12763;BME280;6445;52.490;13.378;2023-04-08T03:13:36;-12695.97;;;-146.10;100.00
12763;BME280;6445;52.490;13.378;2023-04-08T03:16:01;-12695.97;;;-146.10;100.00
12763;BME280;6445;52.490;13.378;2023-04-08T03:18:26;-12695.97;;;-146.10;100.00
12763;BME280;6445;52.490;13.378;2023-04-08T03:20:52;-12695.97;;;-146.10;100.00
12763;BME280;6445;52.490;13.378;2023-04-08T03:23:17;-12695.97;;;-146.10;100.00
12763;BME280;6445;52.490;13.378;2023-04-08T03:25:42;-12695.97;;;-146.10;100.00
12763;BME280;6445;52.490;13.378;2023-04-08T03:28:07;-12695.97;;;-146.10;100.00
12763;BME280;6445;52.490;13.378;2023-04-08T03:30:33;-12695.97;;;-146.10;100.00
12763;BME280;6445;52.490;13.378;2023-04-08T03:32:58;-12695.97;;;-146.10;100.00
12763;BME280;6445;52.490;13.378;2023-04-08T03:35:23;-12695.97;;;-146.10;100.00
12763;BME280;6445;52.490;13.378;2023-04-08T03:37:48;-12695.97;;;-146.10;100.00
12763;BME280;6445;52.490;13.378;2023-04-08T03:40:14;-12695.97;;;-146.10;100.00
12763;BME280;6445;52.490;13.378;2023-04-08T03:42:39;-12695.97;;;-146.10;100.00
12763;BME280;6445;52.490;13.378;2023-04-08T03:45:05;-12695.97;;;-146.10;100.00
12763;BME280;6445;52.490;13.378;2023-04-08T03:47:30;-12695.97;;;-146.10;100.00
12763;BME280;6445;52.490;13.378;2023-04-08T03:49:55;-12695.97;;;-146.10;100.00
12763;BME280;6445;52.490;13.378;2023-04-08T03:52:21;-12695.97;;;-146.10;100.00
12763;BME280;6445;52.490;13.378;2023-04-08T03:54:46;-12695.97;;;-146.10;100.00
12763;BME280;6445;52.490;13.378;2023-04-08T03:57:12;-12695.97;;;-146.10;100.00
12763;BME280;6445;52.490;13.378;2023-04-08T03:59:37;-12695.97;;;-146.10;100.00
12763;BME280;6445;52.490;13.378;2023-04-08T04:02:04;-12695.97;;;-146.10;100.00
12763;BME280;6445;52.490;13.378;2023-04-08T04:04:30;-12695.97;;;-146.10;100.00
12763;BME280;6445;52.490;13.378;2023-04-08T04:06:55;-12695.97;;;-146.10;100.00
12763;BME280;6445;52.490;13.378;2023-04-08T04:09:20;-12695.97;;;-146.10;100.00
12763;BME280;6445;52.490;13.378;2023-04-08T04:11:45;-12695.97;;;-146.10;100.00
12763;BME280;6445;52.490;13.378;2023-04-08T04:14:11;-12695.97;;;-146.10;100.00
12763;BME280;6445;52.490;13.378;2023-04-08T04:16:36;-12695.97;;;-146.10;100.00
12763;BME280;6445;52.490;13.378;2023-04-08T04:19:01;-12695.97;;;-146.10;100.00
12763;BME280;6445;52.490;13.378;2023-04-08T04:21:27;-12695.97;;;-146.10;100.00
12763;BME280;6445;52.490;13.378;2023-04-08T04:23:52;-12695.97;;;-146.10;100.00
12763;BME280;6445;52.490;13.378;2023-04-08T04:26:17;-12695.97;;;-146.10;100.00
12763;BME280;6445;52.490;13.378;2023-04-08T04:28:42;-12695.97;;;-146.10;100.00
12763;BME280;6445;52.490;13.378;2023-04-08T04:31:17;-12695.97;;;-146.10;100.00
12763;BME280;6445;52.490;13.378;2023-04-08T04:33:42;-12695.97;;;-146.10;100.00
12763;BME280;6445;52.490;13.378;2023-04-08T04:36:07;-12695.97;;;-146.10;100.00
12763;BME280;6445;52.490;13.378;2023-04-08T04:38:32;-12695.97;;;-146.10;100.00
12763;BME280;6445;52.490;13.378;2023-04-08T04:40:58;-12695.97;;;-146.10;100.00
12763;BME280;6445;52.490;13.378;2023-04-08T04:43:23;-12695.97;;;-146.10;100.00
12763;BME280;6445;52.490;13.378;2023-04-08T04:45:48;-12695.97;;;-146.10;100.00
12763;BME280;6445;52.490;13.378;2023-04-08T04:48:13;-12695.97;;;-146.10;100.00
12763;BME280;6445;52.490;13.378;2023-04-08T04:50:39;-12695.97;;;-146.10;100.00
12763;BME280;6445;52.490;13.378;2023-04-08T04:53:04;-12695.97;;;-146.10;100.00
12763;BME280;6445;52.490;13.378;2023-04-08T04:55:29;-12695.97;;;-146.10;100.00
12763;BME280;6445;52.490;13.378;2023-04-08T04:57:54;-12695.97;;;-146.10;100.00
12763;BME280;6445;52.490;13.378;2023-04-08T05:00:20;-12695.97;;;-146.10;100.00
12763;BME280;6445;52.490;13.378;2023-04-08T05:02:45;-12695.97;;;-146.10;100.00
12763;BME280;6445;52.490;13.378;2023-04-08T05:05:10;-12695.97;;;-146.10;100.00
12763;BME280;6445;52.490;13.378;2023-04-08T05:07:37;-12695.97;;;-146.10;100.00
12763;BME280;6445;52.490;13.378;2023-04-08T05:10:03;-12695.97;;;-146.10;100.00
12763;BME280;6445;52.490;13.378;2023-04-08T05:12:28;-12695.97;;;-146.10;100.00
12763;BME280;6445;52.490;13.378;2023-04-08T05:14:53;-12695.97;;;-146.10;100.00
12763;BME280;6445;52.490;13.378;2023-04-08T05:17:19;-12695.97;;;-146.10;100.00
12763;BME280;6445;52.490;13.378;2023-04-08T05:19:44;-12695.97;;;-146.10;100.00
12763;BME280;6445;52.490;13.378;2023-04-08T05:22:09;-12695.97;;;-146.10;100.00
12763;BME280;6445;52.490;13.378;2023-04-08T05:24:35;-12695.97;;;-146.10;100.00
12763;BME280;6445;52.490;13.378;2023-04-08T05:27:00;-12695.97;;;-146.10;100.00
12763;BME280;6445;52.490;13.378;2023-04-08T05:29:25;-12695.97;;;-146.10;100.00
12763;BME280;6445;52.490;13.378;2023-04-08T05:31:51;-12695.97;;;-146.10;100.00
12763;BME280;6445;52.490;13.378;2023-04-08T05:34:16;-12695.97;;;-146.10;100.00
12763;BME280;6445;52.490;13.378;2023-04-08T05:36:46;-12695.97;;;-146.10;100.00
12763;BME280;6445;52.490;13.378;2023-04-08T05:39:12;-12695.97;;;-146.10;100.00
12763;BME280;6445;52.490;13.378;2023-04-08T05:41:37;-12695.97;;;-146.10;100.00
12763;BME280;6445;52.490;13.378;2023-04-08T05:44:02;-12695.97;;;-146.10;100.00
12763;BME280;6445;52.490;13.378;2023-04-08T05:46:28;-12695.97;;;-146.10;100.00
12763;BME280;6445;52.490;13.378;2023-04-08T05:48:53;-12695.97;;;-146.10;100.00
12763;BME280;6445;52.490;13.378;2023-04-08T05:51:18;-12695.97;;;-146.10;100.00
12763;BME280;6445;52.490;13.378;2023-04-08T05:53:46;-12695.97;;;-146.10;100.00
12763;BME280;6445;52.490;13.378;2023-04-08T05:56:12;-12695.97;;;-146.10;100.00
12763;BME280;6445;52.490;13.378;2023-04-08T05:58:37;-12695.97;;;-146.10;100.00
12763;BME280;6445;52.490;13.378;2023-04-08T06:01:02;-12695.97;;;-146.10;100.00
12763;BME280;6445;52.490;13.378;2023-04-08T06:03:29;-12695.97;;;-146.10;100.00
12763;BME280;6445;52.490;13.378;2023-04-08T06:05:54;-12695.97;;;-146.10;100.00
12763;BME280;6445;52.490;13.378;2023-04-08T06:08:20;-12695.97;;;-146.10;100.00
12763;BME280;6445;52.490;13.378;2023-04-08T06:10:49;-12695.97;;;-146.10;100.00
12763;BME280;6445;52.490;13.378;2023-04-08T06:13:14;-12695.97;;;-146.10;100.00
12763;BME280;6445;52.490;13.378;2023-04-08T06:15:40;-12695.97;;;-146.10;100.00
12763;BME280;6445;52.490;13.378;2023-04-08T06:18:05;-12695.97;;;-146.10;100.00
12763;BME280;6445;52.490;13.378;2023-04-08T06:20:30;-12695.97;;;-146.10;100.00
12763;BME280;6445;52.490;13.378;2023-04-08T06:22:56;-12695.97;;;-146.10;100.00
12763;BME280;6445;52.490;13.378;2023-04-08T06:25:21;-12695.97;;;-146.10;100.00
12763;BME280;6445;52.490;13.378;2023-04-08T06:27:47;-12695.97;;;-146.10;100.00
12763;BME280;6445;52.490;13.378;2023-04-08T06:30:12;-12695.97;;;-146.10;100.00
12763;BME280;6445;52.490;13.378;2023-04-08T06:32:37;-12695.97;;;-146.10;100.00
12763;BME280;6445;52.490;13.378;2023-04-08T06:35:03;-12695.97;;;-146.10;100.00
12763;BME280;6445;52.490;13.378;2023-04-08T06:37:28;-12695.97;;;-146.10;100.00
12763;BME280;6445;52.490;13.378;2023-04-08T06:39:53;-12695.97;;;-146.10;100.00
12763;BME280;6445;52.490;13.378;2023-04-08T06:42:19;-12695.97;;;-146.10;100.00
12763;BME280;6445;52.490;13.378;2023-04-08T06:44:44;-12695.97;;;-146.10;100.00
12763;BME280;6445;52.490;13.378;2023-04-08T06:47:09;-12695.97;;;-146.10;100.00
12763;BME280;6445;52.490;13.378;2023-04-08T06:49:35;-12695.97;;;-146.10;100.00
12763;BME280;6445;52.490;13.378;2023-04-08T06:52:01;-12695.97;;;-146.10;100.00
12763;BME280;6445;52.490;13.378;2023-04-08T06:54:26;-12695.97;;;-146.10;100.00
12763;BME280;6445;52.490;13.378;2023-04-08T06:56:52;-12695.97;;;-146.10;100.00
12763;BME280;6445;52.490;13.378;2023-04-08T06:59:17;-12695.97;;;-146.10;100.00
12763;BME280;6445;52.490;13.378;2023-04-08T07:01:42;-12695.97;;;-146.10;100.00
12763;BME280;6445;52.490;13.378;2023-04-08T07:04:07;-12695.97;;;-146.10;100.00
12763;BME280;6445;52.490;13.378;2023-04-08T07:06:33;-12695.97;;;-146.10;100.00
12763;BME280;6445;52.490;13.378;2023-04-08T07:08:58;-12695.97;;;-146.10;100.00
12763;BME280;6445;52.490;13.378;2023-04-08T07:11:23;-12695.97;;;-146.10;100.00
12763;BME280;6445;52.490;13.378;2023-04-08T07:13:49;-12695.97;;;-146.10;100.00
12763;BME280;6445;52.490;13.378;2023-04-08T07:16:14;-12695.97;;;-146.10;100.00
12763;BME280;6445;52.490;13.378;2023-04-08T07:18:40;-12695.97;;;-146.10;100.00
12763;BME280;6445;52.490;13.378;2023-04-08T07:21:06;-12695.97;;;-146.10;100.00
12763;BME280;6445;52.490;13.378;2023-04-08T07:23:32;-12695.97;;;-146.10;100.00
12763;BME280;6445;52.490;13.378;2023-04-08T07:26:02;-12695.97;;;-146.10;100.00
12763;BME280;6445;52.490;13.378;2023-04-08T07:28:28;-12694.50;;;-146.10;100.00
12763;BME280;6445;52.490;13.378;2023-04-08T07:30:53;-11938.88;;;-146.10;100.00
12763;BME280;6445;52.490;13.378;2023-04-08T07:33:18;-11687.00;;;-146.10;100.00
12763;BME280;6445;52.490;13.378;2023-04-08T07:35:44;-11687.00;;;-146.10;100.00
12763;BME280;6445;52.490;13.378;2023-04-08T07:38:09;-11687.00;;;-146.10;100.00
12763;BME280;6445;52.490;13.378;2023-04-08T07:40:36;-11938.88;;;-146.10;100.00
12763;BME280;6445;52.490;13.378;2023-04-08T07:43:01;-11183.13;;;-146.10;100.00
12763;BME280;6445;52.490;13.378;2023-04-08T07:45:26;-11435.06;;;-146.10;100.00
12763;BME280;6445;52.490;13.378;2023-04-08T07:47:51;-11938.88;;;-146.10;100.00
12763;BME280;6445;52.490;13.378;2023-04-08T07:50:17;-11435.06;;;-146.10;100.00
12763;BME280;6445;52.490;13.378;2023-04-08T07:52:42;-10931.19;;;-146.10;100.00
12763;BME280;6445;52.490;13.378;2023-04-08T07:55:08;-10175.25;;;-146.10;100.00
12763;BME280;6445;52.490;13.378;2023-04-08T07:57:33;-10427.25;;;-146.10;100.00
12763;BME280;6445;52.490;13.378;2023-04-08T07:59:58;-10931.19;;;-146.10;100.00
12763;BME280;6445;52.490;13.378;2023-04-08T08:02:24;-10931.19;;;-146.10;100.00
12763;BME280;6445;52.490;13.378;2023-04-08T08:04:49;-9671.19;;;-146.10;100.00
12763;BME280;6445;52.490;13.378;2023-04-08T08:07:15;-8158.66;;;-146.10;100.00
12763;BME280;6445;52.490;13.378;2023-04-08T08:09:40;-5888.72;;;-146.10;100.00
12763;BME280;6445;52.490;13.378;2023-04-08T08:12:05;-3869.88;;;-146.10;100.00
12763;BME280;6445;52.490;13.378;2023-04-08T08:14:31;-4122.28;;;-146.10;100.00
12763;BME280;6445;52.490;13.378;2023-04-08T08:16:56;3710.25;;;-146.10;100.00
12763;BME280;6445;52.490;13.378;2023-04-08T08:19:21;5228.06;;;-146.10;100.00
12763;BME280;6445;52.490;13.378;2023-04-08T08:21:47;10545.13;;;-146.10;100.00
12763;BME280;6445;52.490;13.378;2023-04-08T08:24:13;11812.16;;;-146.10;100.00
12763;BME280;6445;52.490;13.378;2023-04-08T08:26:38;10798.50;;;-146.10;100.00
12763;BME280;6445;52.490;13.378;2023-04-08T08:29:04;11558.72;;;-146.10;100.00
12763;BME280;6445;52.490;13.378;2023-04-08T08:31:29;14093.88;;;-146.10;100.00
12763;BME280;6445;52.490;13.378;2023-04-08T08:33:54;10291.75;;;-146.10;100.00
12763;BME280;6445;52.490;13.378;2023-04-08T08:36:20;10931.12;;;-146.10;100.00
12763;BME280;6445;52.490;13.378;2023-04-08T08:38:45;11812.16;;;-146.10;100.00
12763;BME280;6445;52.490;13.378;2023-04-08T08:41:11;15869.47;;;-146.10;100.00
12763;BME280;6445;52.490;13.378;2023-04-08T08:43:37;18915.22;;;-146.10;100.00
12763;BME280;6445;52.490;13.378;2023-04-08T08:46:02;28066.84;;;-146.10;100.00
12763;BME280;6445;52.490;13.378;2023-04-08T08:48:28;18770.44;;;-146.10;100.00
12763;BME280;6445;52.490;13.378;2023-04-08T08:50:53;17471.38;;;-146.10;100.00
12763;BME280;6445;52.490;13.378;2023-04-08T08:53:18;20321.94;;;-146.10;100.00
12763;BME280;6445;52.490;13.378;2023-04-08T08:55:44;43383.25;;;-146.10;100.00
12763;BME280;6445;52.490;13.378;2023-04-08T08:58:09;50029.97;;;-146.10;100.00
12763;BME280;6445;52.490;13.378;2023-04-08T09:00:39;55123.97;;;-146.10;100.00
12763;BME280;6445;52.490;13.378;2023-04-08T09:03:23;58062.09;;;-146.10;100.00
12763;BME280;6445;52.490;13.378;2023-04-08T09:05:53;59927.84;;;-146.10;100.00
12763;BME280;6445;52.490;13.378;2023-04-08T09:08:23;60607.44;;;-146.10;100.00
12763;BME280;6445;52.490;13.378;2023-04-08T09:10:49;66385.56;;;-146.10;100.00
12763;BME280;6445;52.490;13.378;2023-04-08T09:13:14;70232.28;;;-146.10;100.00
12763;BME280;6445;52.490;13.378;2023-04-08T09:16:02;80069.72;;;-146.10;100.00
12763;BME280;6445;52.490;13.378;2023-04-08T09:18:28;80843.44;;;-146.10;100.00
12763;BME280;6445;52.490;13.378;2023-04-08T09:20:54;78522.78;;;-146.10;100.00
12763;BME280;6445;52.490;13.378;2023-04-08T09:23:19;78522.78;;;-146.10;100.00
12763;BME280;6445;52.490;13.378;2023-04-08T09:25:44;77491.84;;;-146.10;100.00
12763;BME280;6445;52.490;13.378;2023-04-08T09:28:19;82133.25;;;-146.10;100.00
12763;BME280;6445;52.490;13.378;2023-04-08T09:30:48;85230.50;;;-146.10;100.00
12763;BME280;6445;52.490;13.378;2023-04-08T09:33:13;84972.31;;;-146.10;100.00
12763;BME280;6445;52.490;13.378;2023-04-08T09:35:38;82391.25;;;-146.10;100.00
12763;BME280;6445;52.490;13.378;2023-04-08T09:38:03;83681.59;;;-146.10;100.00
12763;BME280;6445;52.490;13.378;2023-04-08T09:40:32;80843.44;;;-146.10;100.00
12763;BME280;6445;52.490;13.378;2023-04-08T09:43:03;81617.28;;;-146.10;100.00
12763;BME280;6445;52.490;13.378;2023-04-08T09:45:32;82907.34;;;-146.10;100.00
12763;BME280;6445;52.490;13.378;2023-04-08T09:48:09;84215.97;;;-146.10;100.00
12763;BME280;6445;52.490;13.378;2023-04-08T09:50:39;82469.88;;;-146.10;100.00
12763;BME280;6445;52.490;13.378;2023-04-08T09:53:23;81617.28;;;-146.10;100.00
12763;BME280;6445;52.490;13.378;2023-04-08T09:55:52;75688.28;;;-146.10;100.00
12763;BME280;6445;52.490;13.378;2023-04-08T09:58:21;72045.44;;;-146.10;100.00
12763;BME280;6445;52.490;13.378;2023-04-08T10:00:52;74362.31;;;-146.10;100.00
12763;BME280;6445;52.490;13.378;2023-04-08T10:03:48;71438.28;;;-146.10;100.00
12763;BME280;6445;52.490;13.378;2023-04-08T10:06:16;65004.47;;;-146.10;100.00
12763;BME280;6445;52.490;13.378;2023-04-08T10:08:42;55428.31;;;-146.10;91.45
12763;BME280;6445;52.490;13.378;2023-04-08T10:11:08;54195.13;;;-146.10;87.95
12763;BME280;6445;52.490;13.378;2023-04-08T10:13:34;55302.16;;;-146.10;91.79
12763;BME280;6445;52.490;13.378;2023-04-08T10:18:41;64057.25;;;-146.10;100.00
12763;BME280;6445;52.490;13.378;2023-04-08T10:21:30;75734.56;;;-146.10;100.00
12763;BME280;6445;52.490;13.378;2023-04-08T10:23:57;69354.13;;;-146.10;100.00
12763;BME280;6445;52.490;13.378;2023-04-08T10:31:44;53686.75;;;-146.10;83.51
12763;BME280;6445;52.490;13.378;2023-04-08T10:34:22;52908.28;;;-146.10;76.86
12763;BME280;6445;52.490;13.378;2023-04-08T10:36:49;52404.09;;;-146.10;70.08
12763;BME280;6445;52.490;13.378;2023-04-08T10:39:15;52886.28;;;-146.10;80.58
12763;BME280;6445;52.490;13.378;2023-04-08T10:41:45;53356.53;;;-146.10;81.53
12763;BME280;6445;52.490;13.378;2023-04-08T10:44:18;52372.06;;;-146.10;68.41
12763;BME280;6445;52.490;13.378;2023-04-08T10:46:44;52198.03;;;-146.10;62.10
12763;BME280;6445;52.490;13.378;2023-04-08T10:49:10;52264.03;;;-146.10;71.57
12763;BME280;6445;52.490;13.378;2023-04-08T10:51:37;52592.16;;;-146.10;79.30
12763;BME280;6445;52.490;13.378;2023-04-08T10:54:11;53232.47;;;-146.10;83.02
12763;BME280;6445;52.490;13.378;2023-04-08T10:56:50;53006.34;;;-146.10;80.71
12763;BME280;6445;52.490;13.378;2023-04-08T10:59:26;53056.38;;;-146.10;81.35
12763;BME280;6445;52.490;13.378;2023-04-08T11:01:51;53150.41;;;-146.10;82.82
12763;BME280;6445;52.490;13.378;2023-04-08T11:04:17;53946.94;;;-146.10;86.94
12763;BME280;6445;52.490;13.378;2023-04-08T11:06:47;54725.56;;;-146.10;89.86
12763;BME280;6445;52.490;13.378;2023-04-08T11:09:14;53730.78;;;-146.10;84.55
12763;BME280;6445;52.490;13.378;2023-04-08T11:11:41;53098.38;;;-146.10;79.84
12763;BME280;6445;52.490;13.378;2023-04-08T11:14:07;52670.19;;;-146.10;75.54
12763;BME280;6445;52.490;13.378;2023-04-08T11:16:33;52480.13;;;-146.10;74.41
12763;BME280;6445;52.490;13.378;2023-04-08T11:19:01;52728.22;;;-146.10;77.75
12763;BME280;6445;52.490;13.378;2023-04-08T11:21:27;53142.41;;;-146.10;83.72
12763;BME280;6445;52.490;13.378;2023-04-08T11:23:53;53410.56;;;-146.10;85.23
12763;BME280;6445;52.490;13.378;2023-04-08T11:26:20;53546.66;;;-146.10;84.69
12763;BME280;6445;52.490;13.378;2023-04-08T11:28:45;54169.09;;;-146.10;87.49
12763;BME280;6445;52.490;13.378;2023-04-08T11:31:13;54851.69;;;-146.10;90.16
12763;BME280;6445;52.490;13.378;2023-04-08T11:33:44;56567.72;;;-146.10;93.10
12763;BME280;6445;52.490;13.378;2023-04-08T11:36:11;53668.72;;;-146.10;83.23
12763;BME280;6445;52.490;13.378;2023-04-08T11:38:38;53430.59;;;-146.10;82.06
12763;BME280;6445;52.490;13.378;2023-04-08T11:41:04;53238.47;;;-146.10;81.52
12763;BME280;6445;52.490;13.378;2023-04-08T11:43:29;52920.31;;;-146.10;78.07
12763;BME280;6445;52.490;13.378;2023-04-08T11:45:55;52894.28;;;-146.10;78.52
12763;BME280;6445;52.490;13.378;2023-04-08T11:48:20;52402.09;;;-146.10;68.61
12763;BME280;6445;52.490;13.378;2023-04-08T11:50:45;52372.06;;;-146.10;69.22
12763;BME280;6445;52.490;13.378;2023-04-08T11:53:18;52292.06;;;-146.10;67.63
12763;BME280;6445;52.490;13.378;2023-04-08T11:55:44;52222.03;;;-146.10;63.14
12763;BME280;6445;52.490;13.378;2023-04-08T11:58:09;52182.03;;;-146.10;59.38
12763;BME280;6445;52.490;13.378;2023-04-08T12:00:35;52134.00;;;-146.10;57.09
12763;BME280;6445;52.490;13.378;2023-04-08T12:03:01;52130.00;;;-146.10;59.65
12763;BME280;6445;52.490;13.378;2023-04-08T12:05:26;52146.00;;;-146.10;62.57
12763;BME280;6445;52.490;13.378;2023-04-08T12:07:52;52246.03;;;-146.10;71.65
12763;BME280;6445;52.490;13.378;2023-04-08T12:10:17;52484.13;;;-146.10;75.16
12763;BME280;6445;52.490;13.378;2023-04-08T12:12:42;52406.09;;;-146.10;73.71
12763;BME280;6445;52.490;13.378;2023-04-08T12:15:08;52394.09;;;-146.10;71.75
12763;BME280;6445;52.490;13.378;2023-04-08T12:17:34;52262.03;;;-146.10;68.80
12763;BME280;6445;52.490;13.378;2023-04-08T12:19:59;52394.09;;;-146.10;72.57
12763;BME280;6445;52.490;13.378;2023-04-08T12:22:25;52444.09;;;-146.10;73.51
12763;BME280;6445;52.490;13.378;2023-04-08T12:24:50;52442.09;;;-146.10;71.83
12763;BME280;6445;52.490;13.378;2023-04-08T12:27:15;52386.09;;;-146.10;72.17
12763;BME280;6445;52.490;13.378;2023-04-08T12:29:41;52276.03;;;-146.10;68.85
12763;BME280;6445;52.490;13.378;2023-04-08T12:32:07;52226.03;;;-146.10;64.90
12763;BME280;6445;52.490;13.378;2023-04-08T12:34:32;52136.00;;;-146.10;63.45